Time;durP1;ratioP1;P1;durP2;ratioP2;P2;SDS_P1;SDS_P2;PMS_P1;PMS_P2;Temp;Humidity;BMP_temperature;BMP_pressure;BME280_temperature;BME280_humidity;BME280_pressure;Samples;Min_cycle;Max_cycle;Signal;HPM_P1;HPM_P2
2022/07/04 00:00:12;;;;;;;;;;;;;;;27.75;33.20;100342.09;5362134;32;34791;-78
2022/07/04 00:03:14;;;;;;;;;;;;;;;27.66;33.54;100332.31;5378332;32;35063;-77
2022/07/04 00:06:16;;;;;;;;;;;;;;;28.20;32.43;100340.59;5361202;32;34344;-75
2022/07/04 00:09:18;;;;;;;;;;;;;;;27.69;33.41;100331.97;5376854;32;34388;-78
2022/07/04 00:12:20;;;;;;;;;;;;;;;27.51;33.74;100340.28;5362129;32;34837;-79
2022/07/04 00:15:22;;;;;;;;;;;;;;;27.82;33.22;100343.09;5337810;32;35083;-81
2022/07/04 00:18:24;;;;;;;;;;;;;;;27.84;33.10;100340.25;5372359;32;34566;-69
2022/07/04 00:21:26;;;;;;;;;;;;;;;27.07;34.73;100347.88;5366138;32;35287;-67
2022/07/04 00:24:28;;;;;;;;;;;;;;;27.59;35.19;100348.34;5378438;32;34699;-77
2022/07/04 00:27:30;;;;;;;;;;;;;;;27.16;35.96;100347.69;5361065;32;35090;-67
2022/07/04 00:30:31;;;;;;;;;;;;;;;27.56;34.79;100339.75;5374952;32;34182;-73
2022/07/04 00:33:33;;;;;;;;;;;;;;;27.89;34.01;100344.12;5363769;32;35393;-78
2022/07/04 00:36:35;;;;;;;;;;;;;;;27.51;34.89;100343.81;5360646;32;35267;-67
2022/07/04 00:39:37;;;;;;;;;;;;;;;26.79;36.41;100350.81;5377880;32;44655;-77
2022/07/04 00:42:42;;;;;;;;;;;;;;;26.92;36.34;100339.53;5360359;32;34793;-68
2022/07/04 00:45:44;;;;;;;;;;;;;;;26.95;37.62;100341.91;5376391;32;35107;-68
2022/07/04 00:48:45;;;;;;;;;;;;;;;27.20;37.66;100350.91;5356981;32;35957;-68
2022/07/04 00:51:47;;;;;;;;;;;;;;;26.76;38.47;100351.16;5372401;32;34755;-68
2022/07/04 00:54:49;;;;;;;;;;;;;;;26.38;39.71;100347.12;5363154;32;34843;-78
2022/07/04 00:57:51;;;;;;;;;;;;;;;26.84;38.53;100342.22;5360806;32;35496;-77
2022/07/04 01:00:53;;;;;;;;;;;;;;;27.20;37.77;100340.97;5377410;32;35349;-70
2022/07/04 01:03:55;;;;;;;;;;;;;;;26.22;39.90;100347.94;5363075;32;34894;-67
2022/07/04 01:06:57;;;;;;;;;;;;;;;26.46;39.56;100345.34;5371907;32;35506;-78
2022/07/04 01:09:59;;;;;;;;;;;;;;;25.82;41.22;100352.06;5360984;32;36201;-68
2022/07/04 01:13:01;;;;;;;;;;;;;;;26.23;40.44;100354.16;5374844;32;34433;-68
2022/07/04 01:16:03;;;;;;;;;;;;;;;27.32;37.69;100354.97;5331714;32;35581;-67
2022/07/04 01:19:05;;;;;;;;;;;;;;;26.28;39.75;100365.31;5356068;32;34220;-78
2022/07/04 01:22:07;;;;;;;;;;;;;;;26.19;39.71;100361.72;5382494;32;44921;-77
2022/07/04 01:25:09;;;;;;;;;;;;;;;25.52;41.49;100361.47;5360214;32;35047;-78
2022/07/04 01:28:12;;;;;;;;;;;;;;;25.45;41.56;100364.94;5375129;32;34585;-67
2022/07/04 01:31:14;;;;;;;;;;;;;;;26.17;39.76;100355.66;5358988;32;37710;-67
2022/07/04 01:34:16;;;;;;;;;;;;;;;26.03;39.80;100358.94;5375470;32;36206;-67
2022/07/04 01:37:18;;;;;;;;;;;;;;;25.76;40.44;100358.13;5364196;32;35686;-66
2022/07/04 01:40:20;;;;;;;;;;;;;;;26.26;39.59;100351.97;5360683;32;34092;-67
2022/07/04 01:43:22;;;;;;;;;;;;;;;26.05;39.69;100351.53;5375167;32;34644;-67
2022/07/04 01:46:24;;;;;;;;;;;;;;;26.13;39.15;100349.72;5359975;32;35212;-78
2022/07/04 01:49:26;;;;;;;;;;;;;;;26.51;38.29;100357.50;5376983;32;34990;-78
2022/07/04 01:52:27;;;;;;;;;;;;;;;26.34;38.47;100356.53;5358891;32;36047;-66
2022/07/04 01:55:30;;;;;;;;;;;;;;;26.20;38.67;100347.22;5374788;32;35355;-67
2022/07/04 01:58:31;;;;;;;;;;;;;;;26.14;38.77;100361.34;5346400;32;35841;-75
2022/07/04 02:01:34;;;;;;;;;;;;;;;26.03;39.20;100353.56;5359045;32;35492;-66
2022/07/04 02:04:35;;;;;;;;;;;;;;;26.40;38.49;100355.94;5384128;32;35980;-74
2022/07/04 02:07:41;;;;;;;;;;;;;;;26.18;38.86;100351.94;5353310;32;44662;-67
2022/07/04 02:10:44;;;;;;;;;;;;;;;25.77;39.97;100367.03;5375918;32;35309;-77
2022/07/04 02:13:46;;;;;;;;;;;;;;;25.59;40.68;100373.28;5355996;32;34690;-68
2022/07/04 02:16:48;;;;;;;;;;;;;;;25.67;40.76;100359.03;5341318;32;35078;-66
2022/07/04 02:19:50;;;;;;;;;;;;;;;25.17;42.20;100370.41;5364971;32;35446;-67
2022/07/04 02:22:52;;;;;;;;;;;;;;;25.86;40.50;100380.38;5364322;32;35111;-67
2022/07/04 02:25:54;;;;;;;;;;;;;;;25.76;40.49;100368.03;5373668;32;35226;-75
2022/07/04 02:28:56;;;;;;;;;;;;;;;26.46;39.01;100364.19;5359581;32;34763;-67
2022/07/04 02:31:58;;;;;;;;;;;;;;;26.35;39.33;100360.94;5372531;32;35326;-77
2022/07/04 02:34:59;;;;;;;;;;;;;;;25.47;41.33;100363.75;5361870;32;34757;-78
2022/07/04 02:38:01;;;;;;;;;;;;;;;26.29;39.64;100359.75;5369132;32;36672;-68
2022/07/04 02:41:03;;;;;;;;;;;;;;;26.66;38.67;100363.91;5363209;32;37258;-69
2022/07/04 02:44:05;;;;;;;;;;;;;;;26.75;38.43;100365.66;5357739;32;35468;-77
2022/07/04 02:47:07;;;;;;;;;;;;;;;26.23;39.05;100371.16;5375299;32;45236;-68
2022/07/04 02:50:09;;;;;;;;;;;;;;;25.85;39.79;100373.31;5359776;32;35412;-77
2022/07/04 02:53:11;;;;;;;;;;;;;;;25.18;40.83;100364.00;5375944;32;34946;-78
2022/07/04 02:56:13;;;;;;;;;;;;;;;25.87;39.73;100378.53;5357916;32;34723;-77
2022/07/04 02:59:15;;;;;;;;;;;;;;;24.79;42.00;100379.56;5371969;32;35663;-68
2022/07/04 03:02:17;;;;;;;;;;;;;;;25.29;41.02;100376.37;5368913;32;35035;-72
2022/07/04 03:05:18;;;;;;;;;;;;;;;25.44;40.29;100385.63;5362176;32;34525;-67
2022/07/04 03:08:20;;;;;;;;;;;;;;;25.64;40.31;100380.88;5377245;32;34832;-78
2022/07/04 03:11:22;;;;;;;;;;;;;;;25.99;39.29;100366.50;5362355;32;35606;-68
2022/07/04 03:14:24;;;;;;;;;;;;;;;25.90;39.51;100379.06;5364480;32;35530;-66
2022/07/04 03:17:26;;;;;;;;;;;;;;;25.01;40.86;100368.38;5343241;32;33952;-74
2022/07/04 03:20:30;;;;;;;;;;;;;;;25.09;41.08;100376.56;5374558;32;34617;-77
2022/07/04 03:23:32;;;;;;;;;;;;;;;25.04;41.10;100369.91;5371483;32;34821;-68
2022/07/04 03:26:34;;;;;;;;;;;;;;;25.03;41.28;100376.28;5361450;32;36821;-74
2022/07/04 03:29:36;;;;;;;;;;;;;;;25.10;41.23;100380.09;5378426;32;34030;-78
2022/07/04 03:32:38;;;;;;;;;;;;;;;25.38;40.91;100379.00;5360432;32;47133;-69
2022/07/04 03:35:40;;;;;;;;;;;;;;;24.87;41.93;100373.47;5361919;32;36014;-76
2022/07/04 03:38:42;;;;;;;;;;;;;;;25.45;40.62;100375.69;5362156;32;35036;-66
2022/07/04 03:41:44;;;;;;;;;;;;;;;25.17;41.33;100373.09;5368825;32;35577;-78
2022/07/04 03:44:46;;;;;;;;;;;;;;;25.18;41.10;100363.16;5371404;32;34353;-67
2022/07/04 03:47:48;;;;;;;;;;;;;;;26.09;39.18;100367.22;5359232;32;34874;-67
2022/07/04 03:50:50;;;;;;;;;;;;;;;25.94;39.63;100366.13;5375291;32;35563;-67
2022/07/04 03:53:52;;;;;;;;;;;;;;;26.08;39.13;100364.66;5361619;32;35640;-67
2022/07/04 03:56:54;;;;;;;;;;;;;;;25.68;39.99;100363.41;5373694;32;34754;-68
2022/07/04 03:59:56;;;;;;;;;;;;;;;26.09;39.34;100374.47;5362061;32;37107;-67
2022/07/04 04:02:58;;;;;;;;;;;;;;;26.05;39.09;100375.78;5370932;32;34687;-77
2022/07/04 04:06:00;;;;;;;;;;;;;;;26.86;37.81;100370.75;5370922;32;35240;-77
2022/07/04 04:09:03;;;;;;;;;;;;;;;26.97;37.69;100366.84;5361262;32;35135;-67
2022/07/04 04:12:10;;;;;;;;;;;;;;;27.11;37.09;100365.38;5373682;32;45149;-78
2022/07/04 04:15:12;;;;;;;;;;;;;;;26.15;39.31;100371.12;5334654;32;35379;-74
2022/07/04 04:18:14;;;;;;;;;;;;;;;27.24;37.30;100372.00;5368998;32;34334;-75
2022/07/04 04:21:16;;;;;;;;;;;;;;;26.86;37.90;100375.28;5365672;32;34734;-77
2022/07/04 04:24:18;;;;;;;;;;;;;;;27.22;37.25;100373.16;5365907;32;34174;-78
2022/07/04 04:27:20;;;;;;;;;;;;;;;27.02;37.91;100374.47;5373220;32;35200;-78
2022/07/04 04:30:22;;;;;;;;;;;;;;;26.82;38.37;100382.84;5361067;32;35132;-78
2022/07/04 04:33:24;;;;;;;;;;;;;;;28.25;35.84;100376.06;5377475;32;36399;-77
2022/07/04 04:36:25;;;;;;;;;;;;;;;28.28;35.09;100371.16;5361775;32;34256;-74
2022/07/04 04:39:27;;;;;;;;;;;;;;;29.78;32.95;100369.00;5376096;32;34885;-78
2022/07/04 04:42:29;;;;;;;;;;;;;;;30.05;31.82;100368.34;5362952;32;34944;-67
2022/07/04 04:45:31;;;;;;;;;;;;;;;29.31;32.84;100367.38;5365626;32;34834;-66
2022/07/04 04:48:33;;;;;;;;;;;;;;;31.05;30.44;100358.78;5372646;32;35322;-78
2022/07/04 04:51:36;;;;;;;;;;;;;;;31.26;29.78;100356.91;5359068;32;35108;-68
2022/07/04 04:54:40;;;;;;;;;;;;;;;31.28;29.52;100354.00;5376361;32;44709;-67
2022/07/04 04:57:43;;;;;;;;;;;;;;;30.81;30.43;100358.13;5360593;32;34751;-76
2022/07/04 05:00:45;;;;;;;;;;;;;;;31.55;29.45;100347.75;5374203;32;35336;-79
2022/07/04 05:04:07;;;;;;;;;;;;;;;30.99;30.13;100347.66;5368840;32;45146;-68
2022/07/04 05:07:10;;;;;;;;;;;;;;;33.15;27.09;100333.00;5354471;32;33377;-68
2022/07/04 05:10:12;;;;;;;;;;;;;;;33.45;26.38;100338.09;5376465;32;34491;-74
2022/07/04 05:13:13;;;;;;;;;;;;;;;32.28;27.76;100350.94;5361383;32;35257;-71
2022/07/04 05:19:43;;;;;;;;;;;;;;;33.83;24.94;100351.88;5389705;27;20006;-96
2022/07/04 05:22:55;;;;;;;;;;;;;;;33.13;25.25;100352.28;5377739;32;34850;-96
2022/07/04 05:25:59;;;;;;;;;;;;;;;34.85;23.70;100347.53;5387561;27;35151;-78
2022/07/04 05:29:01;;;;;;;;;;;;;;;34.58;22.85;100355.00;5332703;32;34789;-76
2022/07/04 05:32:04;;;;;;;;;;;;;;;34.45;23.22;100364.94;5342361;32;33698;-72
2022/07/04 05:35:07;;;;;;;;;;;;;;;34.84;22.08;100354.88;5344672;32;35424;-74
2022/07/04 05:38:09;;;;;;;;;;;;;;;34.56;22.16;100357.12;5329767;32;33974;-81
2022/07/04 05:41:11;;;;;;;;;;;;;;;34.69;21.66;100362.53;5346479;32;34203;-77
2022/07/04 05:44:13;;;;;;;;;;;;;;;34.43;21.87;100361.59;5327113;32;35080;-75
2022/07/04 05:47:15;;;;;;;;;;;;;;;33.52;23.17;100358.00;5340444;32;34599;-73
2022/07/04 05:50:16;;;;;;;;;;;;;;;33.71;22.68;100368.03;5327924;32;34518;-70
2022/07/04 05:53:18;;;;;;;;;;;;;;;34.59;21.49;100363.00;5312633;32;44696;-70
2022/07/04 05:56:20;;;;;;;;;;;;;;;35.18;20.71;100355.53;5328769;32;35802;-80
2022/07/04 05:59:22;;;;;;;;;;;;;;;35.30;20.51;100352.91;5332929;32;34367;-78
2022/07/04 06:02:26;;;;;;;;;;;;;;;33.14;22.73;100369.47;5314660;32;36076;-85
2022/07/04 06:05:28;;;;;;;;;;;;;;;34.29;21.71;100359.94;5339616;32;34415;-78
2022/07/04 06:08:30;;;;;;;;;;;;;;;33.93;22.07;100361.31;5349742;32;34402;-73
2022/07/04 06:11:32;;;;;;;;;;;;;;;35.18;21.08;100355.53;5326730;32;34797;-72
2022/07/04 06:14:35;;;;;;;;;;;;;;;35.51;20.23;100355.28;5329256;32;34910;-71
2022/07/04 06:17:37;;;;;;;;;;;;;;;35.16;20.75;100352.16;5337387;32;35456;-78
2022/07/04 06:20:43;;;;;;;;;;;;;;;35.48;20.41;100353.81;5326874;32;33750;-70
2022/07/04 06:23:45;;;;;;;;;;;;;;;33.74;22.45;100364.88;5352104;32;35199;-73
2022/07/04 06:26:47;;;;;;;;;;;;;;;34.58;21.60;100361.31;5329966;32;35913;-79
2022/07/04 06:29:49;;;;;;;;;;;;;;;34.17;22.02;100364.41;5341749;32;45518;-77
2022/07/04 06:32:52;;;;;;;;;;;;;;;34.75;21.70;100361.66;5332419;32;34278;-75
2022/07/04 06:35:54;;;;;;;;;;;;;;;35.60;20.94;100351.19;5332070;32;35496;-82
2022/07/04 06:38:56;;;;;;;;;;;;;;;34.64;21.63;100365.06;5342875;32;34831;-79
2022/07/04 06:41:58;;;;;;;;;;;;;;;35.37;20.99;100360.00;5332311;32;34353;-80
2022/07/04 06:45:00;;;;;;;;;;;;;;;35.65;21.01;100361.47;5345471;32;35353;-82
2022/07/04 06:48:05;;;;;;;;;;;;;;;35.31;21.53;100358.16;5332212;32;34844;-89
2022/07/04 06:51:07;;;;;;;;;;;;;;;35.75;20.66;100361.78;5343890;32;34116;-77
2022/07/04 06:54:09;;;;;;;;;;;;;;;36.59;20.17;100352.03;5317226;32;34354;-78
2022/07/04 06:57:12;;;;;;;;;;;;;;;36.07;20.38;100355.16;5343641;32;35315;-71
2022/07/04 07:00:34;;;;;;;;;;;;;;;37.60;19.12;100356.56;5328231;32;35905;-73
2022/07/04 07:03:36;;;;;;;;;;;;;;;36.78;19.89;100361.03;5311117;32;34162;-77
2022/07/04 07:06:39;;;;;;;;;;;;;;;36.18;20.17;100355.44;5348611;32;35275;-75
2022/07/04 07:09:41;;;;;;;;;;;;;;;36.27;19.95;100357.66;5326096;32;33705;-72
2022/07/04 07:12:43;;;;;;;;;;;;;;;37.46;18.23;100346.94;5341818;32;34398;-77
2022/07/04 07:15:45;;;;;;;;;;;;;;;37.39;18.88;100357.16;5333402;32;35371;-76
2022/07/04 07:18:49;;;;;;;;;;;;;;;37.33;18.25;100356.22;5338399;32;34682;-70
2022/07/04 07:21:52;;;;;;;;;;;;;;;37.21;18.44;100338.03;5329508;32;43247;-74
2022/07/04 07:24:54;;;;;;;;;;;;;;;38.14;17.49;100349.06;5327978;32;32851;-72
2022/07/04 07:27:56;;;;;;;;;;;;;;;38.47;17.24;100344.81;5343708;32;34225;-73
2022/07/04 07:30:59;;;;;;;;;;;;;;;38.14;16.57;100349.06;5327071;32;35679;-77
2022/07/04 07:34:00;;;;;;;;;;;;;;;38.34;16.35;100350.59;5337460;32;34365;-72
2022/07/04 07:37:03;;;;;;;;;;;;;;;37.16;17.48;100346.97;5344510;32;35480;-71
2022/07/04 07:40:05;;;;;;;;;;;;;;;36.27;17.97;100354.09;5324382;32;34401;-74
2022/07/04 07:43:08;;;;;;;;;;;;;;;37.71;16.63;100351.34;5332463;32;36981;-71
2022/07/04 07:46:10;;;;;;;;;;;;;;;36.88;16.93;100350.34;5331291;32;34026;-73
2022/07/04 07:49:12;;;;;;;;;;;;;;;37.13;16.97;100348.28;5344803;32;34500;-75
2022/07/04 07:52:15;;;;;;;;;;;;;;;37.10;16.77;100354.25;5343509;32;34084;-76
2022/07/04 07:55:17;;;;;;;;;;;;;;;38.07;16.27;100351.09;5332193;32;34794;-79
2022/07/04 07:58:19;;;;;;;;;;;;;;;37.97;15.59;100347.28;5335915;32;44561;-73
2022/07/04 08:01:21;;;;;;;;;;;;;;;37.55;16.42;100345.50;5316566;32;34149;-80
2022/07/04 08:04:37;;;;;;;;;;;;;;;38.65;15.63;100352.84;5331097;32;34437;-77
2022/07/04 08:07:39;;;;;;;;;;;;;;;36.69;17.05;100341.34;5317993;32;34173;-73
2022/07/04 08:10:42;;;;;;;;;;;;;;;37.38;16.58;100345.37;5339906;32;34428;-75
2022/07/04 08:13:43;;;;;;;;;;;;;;;38.56;15.60;100346.06;5330325;32;34980;-72
2022/07/04 08:16:46;;;;;;;;;;;;;;;39.13;15.04;100329.56;5331847;32;34534;-84
2022/07/04 08:19:57;;;;;;;;;;;;;;;38.41;15.92;100338.37;5343038;32;44606;-75
2022/07/04 08:22:59;;;;;;;;;;;;;;;39.08;14.95;100332.22;5343198;32;35864;-78
2022/07/04 08:26:02;;;;;;;;;;;;;;;37.84;16.27;100330.03;5328501;32;34253;-76
2022/07/04 08:29:04;;;;;;;;;;;;;;;39.74;14.22;100326.97;5329636;32;33939;-78
2022/07/04 08:32:07;;;;;;;;;;;;;;;38.57;15.14;100339.50;5341767;32;35229;-82
2022/07/04 08:35:10;;;;;;;;;;;;;;;38.04;15.86;100331.53;5340528;32;35560;-80
2022/07/04 08:38:12;;;;;;;;;;;;;;;38.50;15.02;100329.75;5332939;32;34081;-71
2022/07/04 08:41:15;;;;;;;;;;;;;;;37.35;16.37;100340.34;5340005;32;33768;-78
2022/07/04 08:44:17;;;;;;;;;;;;;;;37.46;16.38;100335.97;5338747;32;34469;-80
2022/07/04 08:47:19;;;;;;;;;;;;;;;37.06;15.97;100330.28;5355923;32;34039;-77
2022/07/04 08:50:22;;;;;;;;;;;;;;;36.90;16.35;100333.69;5327415;32;34714;-79
2022/07/04 08:53:28;;;;;;;;;;;;;;;36.23;17.32;100333.72;5353486;32;34299;-79
2022/07/04 08:59:54;;;;;;;;;;;;;;;37.52;16.21;100335.00;5323870;32;44500;-79
2022/07/04 09:02:56;;;;;;;;;;;;;;;38.74;15.12;100337.66;5324856;32;34361;-76
2022/07/04 09:05:58;;;;;;;;;;;;;;;37.64;16.07;100335.84;5342920;32;34399;-74
2022/07/04 09:09:00;;;;;;;;;;;;;;;38.02;15.50;100334.53;5341639;32;35549;-75
2022/07/04 09:12:03;;;;;;;;;;;;;;;38.70;15.34;100327.38;5334383;32;34422;-74
2022/07/04 09:15:05;;;;;;;;;;;;;;;38.99;14.77;100329.06;5327507;32;34419;-80
2022/07/04 09:18:28;;;;;;;;;;;;;;;39.52;14.42;100321.41;5342517;32;35510;-69
2022/07/04 09:21:43;;;;;;;;;;;;;;;40.02;13.84;100321.31;5322725;32;34349;-71
2022/07/04 09:24:49;;;;;;;;;;;;;;;40.24;13.97;100318.56;5339126;32;34185;-76
2022/07/04 09:27:52;;;;;;;;;;;;;;;41.06;13.45;100322.22;5345487;32;44372;-76
2022/07/04 09:30:54;;;;;;;;;;;;;;;41.28;13.22;100319.34;5330999;32;35498;-77
2022/07/04 09:33:57;;;;;;;;;;;;;;;42.43;12.37;100323.06;5333478;32;35946;-77
2022/07/04 09:37:00;;;;;;;;;;;;;;;40.33;13.89;100324.47;5329201;32;35569;-72
2022/07/04 09:40:07;;;;;;;;;;;;;;;41.07;13.59;100319.19;5353752;32;35818;-73
2022/07/04 09:43:12;;;;;;;;;;;;;;;40.05;14.53;100314.47;5344086;32;34082;-75
2022/07/04 09:46:14;;;;;;;;;;;;;;;41.29;13.60;100321.03;5340335;32;34214;-75
2022/07/04 09:49:16;;;;;;;;;;;;;;;40.66;13.86;100320.72;5338925;32;35390;-79
2022/07/04 09:52:18;;;;;;;;;;;;;;;41.42;13.58;100300.47;5330571;32;35872;-80
2022/07/04 09:55:38;;;;;;;;;;;;;;;40.65;14.30;100312.72;5340187;32;44747;-73
2022/07/04 09:58:40;;;;;;;;;;;;;;;39.68;15.48;100312.34;5330836;32;34394;-74
2022/07/04 10:01:43;;;;;;;;;;;;;;;42.36;13.25;100291.28;5336179;32;34183;-78
2022/07/04 10:04:49;;;;;;;;;;;;;;;41.34;14.02;100294.34;5325619;32;35326;-73
2022/07/04 10:07:51;;;;;;;;;;;;;;;41.69;13.57;100292.09;5343788;32;43711;-76
2022/07/04 10:10:57;;;;;;;;;;;;;;;41.05;13.92;100299.34;5340972;32;35450;-74
2022/07/04 10:14:00;;;;;;;;;;;;;;;41.57;13.04;100295.88;5327448;32;34494;-72
2022/07/04 10:17:02;;;;;;;;;;;;;;;40.13;14.08;100289.28;5356471;32;34301;-74
2022/07/04 10:20:04;;;;;;;;;;;;;;;42.25;12.47;100293.19;5325683;32;33459;-80
2022/07/04 10:23:07;;;;;;;;;;;;;;;43.26;11.76;100280.59;5345991;32;34199;-82
2022/07/04 10:26:09;;;;;;;;;;;;;;;40.26;14.19;100288.88;5335346;32;34629;-86
2022/07/04 10:29:11;;;;;;;;;;;;;;;43.62;11.68;100272.25;5333032;32;34077;-82
2022/07/04 10:32:13;;;;;;;;;;;;;;;40.38;13.89;100274.94;5344876;32;34877;-73
2022/07/04 10:35:15;;;;;;;;;;;;;;;42.26;12.46;100278.28;5333026;32;36131;-75
2022/07/04 10:38:18;;;;;;;;;;;;;;;42.21;12.43;100258.94;5356202;32;35439;-72
2022/07/04 10:41:21;;;;;;;;;;;;;;;41.41;12.76;100252.75;5330253;32;45053;-75
2022/07/04 10:44:25;;;;;;;;;;;;;;;42.54;12.04;100252.09;5337185;32;35414;-76
2022/07/04 10:47:29;;;;;;;;;;;;;;;41.56;13.00;100246.50;5335313;32;34699;-77
2022/07/04 10:50:31;;;;;;;;;;;;;;;43.13;11.45;100242.47;5329828;32;35330;-83
2022/07/04 10:53:54;;;;;;;;;;;;;;;42.15;12.40;100244.28;5320623;32;34279;-84
2022/07/04 10:56:56;;;;;;;;;;;;;;;42.00;12.36;100252.50;5338379;32;46136;-88
2022/07/04 10:59:59;;;;;;;;;;;;;;;42.16;12.28;100251.47;5351140;32;34182;-75
2022/07/04 11:03:15;;;;;;;;;;;;;;;43.28;11.26;100228.59;5314748;32;34108;-78
2022/07/04 11:06:29;;;;;;;;;;;;;;;42.67;11.04;100243.28;5341579;32;35107;-76
2022/07/04 11:09:31;;;;;;;;;;;;;;;40.88;12.75;100232.47;5340994;32;37227;-77
2022/07/04 11:12:38;;;;;;;;;;;;;;;41.14;12.76;100223.31;5331354;32;34383;-79
2022/07/04 11:15:43;;;;;;;;;;;;;;;42.31;11.57;100225.00;5341593;32;35647;-77
2022/07/04 11:18:45;;;;;;;;;;;;;;;43.50;10.37;100220.00;5324667;32;34109;-77
2022/07/04 11:21:47;;;;;;;;;;;;;;;43.40;10.31;100217.25;5347265;32;36200;-74
2022/07/04 11:24:49;;;;;;;;;;;;;;;42.68;10.85;100213.72;5332507;32;44591;-76
2022/07/04 11:27:51;;;;;;;;;;;;;;;41.27;12.16;100212.91;5320059;32;34707;-78
2022/07/04 11:30:54;;;;;;;;;;;;;;;42.43;11.12;100184.94;5353200;32;34337;-77
2022/07/04 11:33:57;;;;;;;;;;;;;;;42.78;11.03;100194.41;5330034;32;35574;-77
2022/07/04 11:37:01;;;;;;;;;;;;;;;44.50;9.13;100197.59;5356503;32;34745;-76
2022/07/04 11:46:45;;;;;;;;;;;;;;;45.97;8.53;100177.72;5348706;32;34181;-78
2022/07/04 11:49:57;;;;;;;;;;;;;;;45.33;8.86;100170.75;5343357;32;34750;-71
2022/07/04 11:52:59;;;;;;;;;;;;;;;44.82;8.43;100174.06;5334777;32;35447;-73
2022/07/04 11:56:21;;;;;;;;;;;;;;;42.47;9.66;100169.50;5325271;32;45121;-75
2022/07/04 11:59:26;;;;;;;;;;;;;;;44.81;8.33;100169.63;5327918;32;34192;-76
2022/07/04 12:02:29;;;;;;;;;;;;;;;42.30;9.78;100176.37;5331912;32;34345;-78
2022/07/04 12:05:32;;;;;;;;;;;;;;;40.68;10.64;100177.22;5332665;32;35566;-79
2022/07/04 12:08:34;;;;;;;;;;;;;;;41.50;10.42;100173.94;5355015;32;34481;-72
2022/07/04 12:11:49;;;;;;;;;;;;;;;40.69;9.53;100171.44;5335127;32;34147;-77
2022/07/04 12:14:58;;;;;;;;;;;;;;;37.71;11.73;100195.03;5335090;32;44947;-74
2022/07/04 12:18:00;;;;;;;;;;;;;;;38.83;11.44;100184.28;5343467;32;34310;-69
2022/07/04 12:21:18;;;;;;;;;;;;;;;38.64;11.93;100180.91;5330059;32;34723;-74
2022/07/04 12:24:20;;;;;;;;;;;;;;;39.09;11.73;100188.22;5342800;32;44411;-76
2022/07/04 12:27:24;;;;;;;;;;;;;;;37.83;12.53;100182.16;5343861;32;34334;-71
2022/07/04 12:30:27;;;;;;;;;;;;;;;37.01;13.34;100179.50;5356855;32;35542;-71
2022/07/04 12:33:29;;;;;;;;;;;;;;;37.96;13.31;100162.66;5325989;32;34018;-75
2022/07/04 12:36:31;;;;;;;;;;;;;;;36.86;13.67;100169.00;5335478;32;34319;-79
2022/07/04 12:39:34;;;;;;;;;;;;;;;37.64;13.32;100174.06;5355300;32;32569;-75
2022/07/04 12:42:36;;;;;;;;;;;;;;;37.58;13.43;100175.06;5328765;32;35363;-78
2022/07/04 12:45:45;;;;;;;;;;;;;;;38.02;13.26;100175.41;5354440;32;34043;-77
2022/07/04 12:48:48;;;;;;;;;;;;;;;36.71;14.11;100179.56;5330018;32;36441;-73
2022/07/04 12:51:50;;;;;;;;;;;;;;;37.21;13.73;100166.25;5346098;32;44754;-74
2022/07/04 12:55:07;;;;;;;;;;;;;;;37.01;14.02;100174.84;5333619;32;35250;-75
2022/07/04 12:58:09;;;;;;;;;;;;;;;37.21;13.97;100169.00;5318779;32;34504;-72
2022/07/04 13:01:11;;;;;;;;;;;;;;;38.03;13.47;100160.59;5330467;32;35413;-74
2022/07/04 13:04:13;;;;;;;;;;;;;;;37.01;14.10;100157.59;5326629;32;34284;-71
2022/07/04 13:07:16;;;;;;;;;;;;;;;37.57;13.54;100173.38;5346684;32;34565;-75
2022/07/04 13:10:18;;;;;;;;;;;;;;;36.84;14.26;100154.69;5344074;32;33618;-74
2022/07/04 13:13:20;;;;;;;;;;;;;;;37.91;13.44;100157.09;5334928;32;44279;-76
2022/07/04 13:16:22;;;;;;;;;;;;;;;37.72;13.36;100161.88;5337020;32;36243;-77
2022/07/04 13:19:25;;;;;;;;;;;;;;;37.49;13.69;100148.28;5340518;32;34223;-82
2022/07/04 13:22:28;;;;;;;;;;;;;;;37.17;14.01;100164.25;5357446;32;35666;-76
2022/07/04 13:25:30;;;;;;;;;;;;;;;37.42;13.64;100151.16;5333228;32;34130;-73
2022/07/04 13:28:32;;;;;;;;;;;;;;;37.89;13.59;100154.59;5337695;32;34272;-71
2022/07/04 13:31:34;;;;;;;;;;;;;;;36.92;14.30;100159.03;5341414;32;35648;-71
2022/07/04 13:34:36;;;;;;;;;;;;;;;36.38;14.56;100155.44;5324927;32;34192;-71
2022/07/04 13:37:39;;;;;;;;;;;;;;;37.56;13.97;100158.03;5335769;32;34270;-71
2022/07/04 13:40:44;;;;;;;;;;;;;;;37.13;14.09;100144.72;5328393;32;34260;-72
2022/07/04 13:43:47;;;;;;;;;;;;;;;37.41;14.07;100152.19;5354861;32;34122;-73
2022/07/04 13:46:49;;;;;;;;;;;;;;;37.57;14.20;100145.97;5328248;32;44420;-72
2022/07/04 13:49:51;;;;;;;;;;;;;;;37.74;14.26;100151.50;5337043;32;33530;-71
2022/07/04 13:52:53;;;;;;;;;;;;;;;37.48;14.60;100149.31;5327165;32;34219;-69
2022/07/04 13:55:55;;;;;;;;;;;;;;;36.86;14.85;100145.22;5334132;32;35159;-70
2022/07/04 13:58:58;;;;;;;;;;;;;;;36.49;15.37;100141.81;5339568;32;35218;-71
2022/07/04 14:01:59;;;;;;;;;;;;;;;36.97;15.31;100137.22;5301220;32;34385;-71
2022/07/04 14:05:02;;;;;;;;;;;;;;;36.96;15.10;100136.38;5357632;32;35619;-76
2022/07/04 14:08:04;;;;;;;;;;;;;;;37.46;14.73;100129.56;5327421;32;35459;-75
2022/07/04 14:11:06;;;;;;;;;;;;;;;38.01;14.46;100118.87;5346542;32;35323;-72
2022/07/04 14:14:08;;;;;;;;;;;;;;;37.98;14.78;100116.62;5341070;32;35670;-76
2022/07/04 14:17:10;;;;;;;;;;;;;;;38.56;14.08;100123.69;5330591;32;34922;-73
2022/07/04 14:20:32;;;;;;;;;;;;;;;38.17;14.62;100122.72;5352804;32;36268;-76
2022/07/04 14:23:41;;;;;;;;;;;;;;;37.51;14.99;100113.22;5331087;32;35499;-78
2022/07/04 14:26:43;;;;;;;;;;;;;;;37.35;15.10;100121.09;5345070;32;34083;-75
2022/07/04 14:29:45;;;;;;;;;;;;;;;37.12;15.43;100121.13;5342312;32;33974;-77
2022/07/04 14:32:47;;;;;;;;;;;;;;;37.14;15.44;100118.97;5346552;32;35775;-75
2022/07/04 14:35:50;;;;;;;;;;;;;;;36.57;16.09;100108.63;5341247;32;44678;-72
2022/07/04 14:38:52;;;;;;;;;;;;;;;36.82;16.06;100104.81;5333684;32;35098;-88
2022/07/04 14:41:54;;;;;;;;;;;;;;;37.19;15.81;100096.34;5357153;32;35240;-73
2022/07/04 14:44:56;;;;;;;;;;;;;;;37.03;16.29;100117.91;5340176;32;35807;-75
2022/07/04 14:47:59;;;;;;;;;;;;;;;36.12;17.09;100119.22;5342340;32;34843;-76
2022/07/04 14:51:01;;;;;;;;;;;;;;;36.68;16.58;100111.59;5330166;32;34778;-74
2022/07/04 14:54:03;;;;;;;;;;;;;;;36.55;16.38;100108.03;5337190;32;34672;-77
2022/07/04 14:57:07;;;;;;;;;;;;;;;36.76;15.69;100103.03;5338738;32;34323;-72
2022/07/04 15:00:09;;;;;;;;;;;;;;;36.41;16.16;100109.31;5322053;32;34428;-69
2022/07/04 15:03:11;;;;;;;;;;;;;;;37.10;15.23;100096.72;5329523;32;34145;-72
2022/07/04 15:06:13;;;;;;;;;;;;;;;37.08;15.35;100109.00;5338022;32;34226;-78
2022/07/04 15:09:15;;;;;;;;;;;;;;;36.43;15.92;100098.97;5347592;32;34181;-78
2022/07/04 15:12:17;;;;;;;;;;;;;;;36.13;16.32;100098.16;5342883;32;35196;-75
2022/07/04 15:15:20;;;;;;;;;;;;;;;36.95;15.43;100093.63;5337799;32;43715;-70
2022/07/04 15:18:41;;;;;;;;;;;;;;;37.04;15.32;100086.75;5342503;32;34634;-70
2022/07/04 15:25:04;;;;;;;;;;;;;;;36.20;16.36;100099.75;5345911;32;34311;-82
2022/07/04 15:28:06;;;;;;;;;;;;;;;35.89;16.72;100083.59;5344310;32;34590;-78
2022/07/04 15:31:08;;;;;;;;;;;;;;;36.40;16.12;100088.50;5350070;32;35265;-75
2022/07/04 15:34:11;;;;;;;;;;;;;;;36.52;16.30;100094.81;5345264;32;35862;-80
2022/07/04 15:37:13;;;;;;;;;;;;;;;36.99;15.29;100085.78;5333077;32;34273;-78
2022/07/04 15:40:15;;;;;;;;;;;;;;;36.67;15.54;100083.41;5348083;32;34237;-78
2022/07/04 15:43:17;;;;;;;;;;;;;;;36.55;15.75;100068.88;5332506;32;36125;-84
2022/07/04 15:46:22;;;;;;;;;;;;;;;37.17;15.39;100079.34;5342395;32;44773;-84
2022/07/04 15:49:24;;;;;;;;;;;;;;;36.14;15.90;100078.81;5332262;32;35377;-81
2022/07/04 15:52:27;;;;;;;;;;;;;;;36.50;15.71;100082.44;5334850;32;35377;-80
2022/07/04 15:55:29;;;;;;;;;;;;;;;36.50;15.61;100076.97;5349131;32;34234;-80
2022/07/04 15:58:31;;;;;;;;;;;;;;;35.62;16.74;100088.56;5327575;32;34330;-82